createdAt,value
2019-01-09T00:00:24.640Z,3.47
2019-01-09T00:02:53.976Z,3.77
2019-01-09T00:05:28.273Z,3.87
2019-01-09T00:07:56.404Z,3.70
2019-01-09T00:10:25.840Z,3.80
2019-01-09T00:12:55.194Z,4.33
2019-01-09T00:15:24.717Z,5.28
2019-01-09T00:17:54.155Z,5.90
2019-01-09T00:20:23.811Z,4.43
2019-01-09T00:22:53.485Z,5.90
2019-01-09T00:25:23.126Z,4.70
2019-01-09T00:27:52.816Z,5.10
2019-01-09T00:30:22.519Z,4.70
2019-01-09T00:32:51.869Z,4.37
2019-01-09T00:35:21.308Z,4.60
2019-01-09T00:37:50.687Z,4.30
2019-01-09T00:40:20.247Z,4.93
2019-01-09T00:42:49.664Z,4.20
2019-01-09T00:45:19.168Z,4.13
2019-01-09T00:47:48.596Z,5.00
2019-01-09T00:50:17.953Z,4.23
2019-01-09T00:52:47.756Z,4.60
2019-01-09T00:55:17.238Z,4.17
2019-01-09T00:57:46.671Z,4.10
2019-01-09T01:00:20.486Z,4.10
2019-01-09T01:03:09.028Z,4.27
2019-01-09T01:06:17.198Z,4.30
2019-01-09T01:09:04.830Z,4.20
2019-01-09T01:11:56.861Z,4.00
2019-01-09T01:14:33.408Z,4.13
2019-01-09T01:17:27.936Z,3.77
2019-01-09T01:20:34.843Z,3.40
2019-01-09T01:23:26.640Z,3.73
2019-01-09T01:26:29.376Z,3.13
2019-01-09T01:29:15.752Z,3.83
2019-01-09T01:32:05.984Z,3.47
2019-01-09T01:35:01.309Z,3.47
2019-01-09T01:37:43.655Z,3.60
2019-01-09T01:40:45.476Z,4.47
2019-01-09T01:43:31.020Z,3.47
2019-01-09T01:46:25.446Z,3.37
2019-01-09T01:49:20.310Z,3.20
2019-01-09T01:52:03.473Z,3.97
2019-01-09T01:54:55.285Z,3.57
2019-01-09T02:16:17.662Z,3.93
2019-01-09T02:18:57.288Z,4.43
2019-01-09T02:21:43.129Z,4.03
2019-01-09T02:24:22.807Z,3.77
2019-01-09T02:27:21.496Z,3.50
2019-01-09T02:30:23.216Z,3.37
2019-01-09T02:32:52.591Z,4.30
2019-01-09T02:35:21.926Z,3.90
2019-01-09T02:37:51.272Z,3.60
2019-01-09T02:40:20.638Z,4.03
2019-01-09T02:42:49.992Z,4.10
2019-01-09T02:45:19.341Z,4.10
2019-01-09T02:47:48.738Z,3.67
2019-01-09T02:50:18.080Z,3.93
2019-01-09T02:52:47.442Z,4.00
2019-01-09T02:55:17.087Z,3.77
2019-01-09T02:57:56.193Z,4.00
2019-01-09T03:00:17.529Z,4.37
2019-01-09T03:02:46.917Z,3.87
2019-01-09T03:05:16.286Z,3.08
2019-01-09T03:07:45.650Z,3.37
2019-01-09T03:10:15.013Z,3.70
2019-01-09T03:12:44.373Z,3.93
2019-01-09T03:15:14.009Z,3.77
2019-01-09T03:17:43.717Z,4.10
2019-01-09T03:20:13.141Z,3.50
2019-01-09T03:22:42.505Z,3.27
2019-01-09T03:25:11.876Z,3.37
2019-01-09T03:27:41.222Z,3.23
2019-01-09T03:30:10.999Z,2.67
2019-01-09T03:32:40.358Z,2.60
2019-01-09T03:35:09.714Z,2.40
2019-01-09T03:37:39.076Z,2.50
2019-01-09T03:40:08.980Z,2.50
2019-01-09T03:42:38.497Z,2.73
2019-01-09T03:45:08.065Z,2.70
2019-01-09T03:47:37.423Z,2.77
2019-01-09T03:50:08.408Z,2.97
2019-01-09T03:52:37.749Z,2.80
2019-01-09T03:55:07.308Z,3.00
2019-01-09T03:57:36.660Z,3.10
2019-01-09T04:00:07.912Z,2.90
2019-01-09T04:02:37.933Z,2.80
2019-01-09T04:05:07.454Z,2.90
2019-01-09T04:07:36.807Z,2.80
2019-01-09T04:10:08.299Z,3.12
2019-01-09T04:12:37.638Z,3.27
2019-01-09T04:15:08.419Z,3.30
2019-01-09T04:17:37.794Z,3.53
2019-01-09T04:20:07.843Z,2.80
2019-01-09T04:22:37.202Z,2.80
2019-01-09T04:25:07.108Z,2.90
2019-01-09T04:27:36.459Z,3.10
2019-01-09T04:30:07.916Z,3.20
2019-01-09T04:32:37.351Z,2.97
2019-01-09T04:35:06.842Z,2.80
2019-01-09T04:37:36.233Z,2.73
2019-01-09T04:40:07.323Z,3.17
2019-01-09T04:42:36.685Z,3.33
2019-01-09T04:45:07.683Z,2.98
2019-01-09T04:47:37.061Z,3.00
2019-01-09T04:50:07.118Z,3.17
2019-01-09T04:52:36.487Z,3.00
2019-01-09T04:55:06.717Z,3.17
2019-01-09T04:57:36.073Z,3.17
2019-01-09T05:00:08.345Z,3.40
2019-01-09T05:02:38.116Z,3.67
2019-01-09T05:05:07.546Z,3.83
2019-01-09T05:07:36.900Z,4.03
2019-01-09T05:10:08.454Z,3.52
2019-01-09T05:12:37.808Z,3.40
2019-01-09T05:15:07.262Z,3.93
2019-01-09T05:17:36.648Z,3.60
2019-01-09T05:20:06.987Z,3.55
2019-01-09T05:22:36.375Z,3.40
2019-01-09T05:25:06.397Z,3.45
2019-01-09T05:27:35.766Z,3.30
2019-01-09T05:30:07.655Z,3.90
2019-01-09T05:32:37.022Z,3.50
2019-01-09T05:35:06.460Z,3.40
2019-01-09T05:37:35.813Z,3.30
2019-01-09T05:40:06.023Z,3.20
2019-01-09T05:42:35.374Z,3.57
2019-01-09T05:45:05.154Z,3.90
2019-01-09T05:47:34.889Z,3.67
2019-01-09T05:50:06.660Z,3.70
2019-01-09T05:52:36.022Z,4.80
2019-01-09T05:55:06.528Z,4.45
2019-01-09T05:57:35.880Z,3.67
2019-01-09T06:00:09.068Z,3.85
2019-01-09T06:02:38.508Z,4.30
2019-01-09T06:05:08.212Z,3.80
2019-01-09T06:07:37.544Z,3.90
2019-01-09T06:10:08.952Z,3.60
2019-01-09T06:12:38.300Z,3.93
2019-01-09T06:15:07.992Z,3.77
2019-01-09T06:17:37.357Z,4.10
2019-01-09T06:20:08.117Z,3.60
2019-01-09T06:22:38.938Z,3.80
2019-01-09T06:25:09.205Z,3.77
2019-01-09T06:27:38.564Z,4.47
2019-01-09T06:30:09.993Z,3.43
2019-01-09T06:32:39.484Z,3.57
2019-01-09T06:35:08.852Z,4.33
2019-01-09T06:37:38.222Z,4.60
2019-01-09T06:40:09.229Z,4.23
2019-01-09T06:42:40.131Z,4.30
2019-01-09T06:45:09.571Z,4.63
2019-01-09T06:47:39.263Z,3.80
2019-01-09T06:50:16.138Z,3.90
2019-01-09T06:52:45.517Z,4.03
2019-01-09T06:55:14.878Z,5.00
2019-01-09T06:57:44.228Z,4.00
2019-01-09T07:00:13.991Z,4.17
2019-01-09T07:02:43.341Z,4.30
2019-01-09T07:05:12.708Z,5.40
2019-01-09T07:07:42.140Z,5.17
2019-01-09T07:10:11.535Z,4.37
2019-01-09T07:12:40.898Z,3.83
2019-01-09T07:15:11.766Z,4.10
2019-01-09T07:17:41.380Z,4.73
2019-01-09T07:20:10.755Z,4.57
2019-01-09T07:22:40.382Z,4.30
2019-01-09T07:25:09.740Z,5.50
2019-01-09T07:27:39.087Z,4.73
2019-01-09T07:30:10.736Z,4.10
2019-01-09T07:32:40.106Z,4.63
2019-01-09T07:35:09.458Z,4.17
2019-01-09T07:37:45.098Z,4.80
2019-01-09T07:40:10.017Z,4.13
2019-01-09T07:42:39.400Z,4.70
2019-01-09T07:45:10.116Z,4.60
2019-01-09T07:47:40.998Z,4.87
2019-01-09T07:50:10.567Z,4.20
2019-01-09T07:52:39.995Z,4.30
2019-01-09T07:55:09.441Z,4.67
2019-01-09T07:57:38.869Z,3.83
2019-01-09T08:00:11.351Z,5.37
2019-01-09T08:02:40.730Z,5.07
2019-01-09T08:05:10.080Z,5.03
2019-01-09T08:07:39.485Z,7.17
2019-01-09T08:10:10.867Z,5.10
2019-01-09T08:12:40.263Z,5.40
2019-01-09T08:15:10.095Z,5.00
2019-01-09T08:17:39.457Z,4.60
2019-01-09T08:20:09.277Z,4.90
2019-01-09T08:22:41.454Z,5.43
2019-01-09T08:25:10.841Z,5.47
2019-01-09T08:27:40.230Z,4.73
2019-01-09T08:30:11.794Z,5.17
2019-01-09T08:32:41.192Z,5.70
2019-01-09T08:35:10.712Z,5.73
2019-01-09T08:37:40.064Z,6.03
2019-01-09T08:40:10.100Z,5.27
2019-01-09T08:42:39.481Z,5.27
2019-01-09T08:45:09.169Z,6.00
2019-01-09T08:47:38.520Z,6.10
2019-01-09T08:50:09.395Z,5.23
2019-01-09T08:52:39.161Z,4.90
2019-01-09T08:55:09.690Z,4.90
2019-01-09T08:57:39.077Z,5.47
2019-01-09T09:00:11.246Z,4.83
2019-01-09T09:02:40.569Z,4.60
2019-01-09T09:05:09.920Z,4.70
2019-01-09T09:07:40.826Z,5.37
2019-01-09T09:10:12.277Z,4.83
2019-01-09T09:12:41.623Z,4.63
2019-01-09T09:15:13.732Z,4.77
2019-01-09T09:17:43.115Z,4.30
2019-01-09T09:20:13.680Z,4.70
2019-01-09T09:22:43.088Z,3.63
2019-01-09T09:25:12.491Z,4.37
2019-01-09T09:27:41.876Z,4.37
2019-01-09T09:30:18.801Z,4.05
2019-01-09T09:32:48.159Z,4.13
2019-01-09T09:35:17.504Z,3.90
2019-01-09T09:37:47.676Z,4.00
2019-01-09T09:40:20.064Z,4.60
2019-01-09T09:42:49.422Z,3.80
2019-01-09T09:45:18.793Z,3.77
2019-01-09T09:47:48.153Z,3.70
2019-01-09T09:50:18.174Z,4.03
2019-01-09T09:52:47.553Z,3.93
2019-01-09T09:55:16.989Z,3.57
2019-01-09T09:57:46.340Z,3.23
2019-01-09T10:00:20.204Z,4.60
2019-01-09T10:02:49.558Z,4.17
2019-01-09T10:05:18.917Z,4.03
2019-01-09T10:07:48.301Z,4.13
2019-01-09T10:10:17.648Z,3.93
2019-01-09T10:12:46.992Z,3.80
2019-01-09T10:15:17.795Z,3.17
2019-01-09T10:17:47.165Z,2.70
2019-01-09T10:20:18.332Z,3.37
2019-01-09T10:22:48.277Z,3.17
2019-01-09T10:25:18.049Z,3.57
2019-01-09T10:27:47.398Z,3.40
2019-01-09T10:30:23.384Z,3.37
2019-01-09T10:32:52.744Z,3.13
2019-01-09T10:35:22.103Z,3.10
2019-01-09T10:37:51.612Z,3.23
2019-01-09T10:40:22.624Z,3.30
2019-01-09T10:42:52.013Z,3.83
2019-01-09T10:45:22.645Z,3.90
2019-01-09T10:47:51.997Z,2.97
2019-01-09T10:50:21.445Z,3.43
2019-01-09T10:52:50.821Z,5.20
2019-01-09T10:55:20.677Z,3.80
2019-01-09T10:57:50.099Z,3.80
2019-01-09T11:00:23.062Z,3.20
2019-01-09T11:02:52.482Z,3.20
2019-01-09T11:05:22.191Z,3.43
2019-01-09T11:07:52.127Z,3.97
2019-01-09T11:10:22.313Z,4.33
2019-01-09T11:12:51.648Z,4.17
2019-01-09T11:15:21.032Z,3.60
2019-01-09T11:17:50.464Z,4.03
2019-01-09T11:20:21.630Z,4.60
2019-01-09T11:22:51.079Z,3.20
2019-01-09T11:25:24.422Z,3.10
2019-01-09T11:27:54.238Z,4.10
2019-01-09T11:30:23.748Z,3.20
2019-01-09T11:32:53.097Z,3.50
2019-01-09T11:35:24.668Z,3.55
2019-01-09T11:37:54.694Z,3.40
2019-01-09T11:40:24.188Z,3.07
2019-01-09T11:42:53.603Z,4.33
2019-01-09T11:45:23.030Z,3.90
2019-01-09T11:47:52.549Z,3.30
2019-01-09T11:50:23.437Z,3.10
2019-01-09T11:52:52.793Z,3.27
2019-01-09T11:55:25.081Z,3.47
2019-01-09T11:57:54.433Z,3.03
2019-01-09T12:00:27.133Z,4.20
2019-01-09T12:02:57.073Z,3.20
2019-01-09T12:05:26.426Z,3.23
2019-01-09T12:07:56.317Z,3.47
2019-01-09T12:10:30.197Z,3.23
2019-01-09T12:12:57.306Z,3.67
2019-01-09T12:15:26.721Z,3.33
2019-01-09T12:17:56.074Z,3.17
2019-01-09T12:20:25.753Z,3.27
2019-01-09T12:22:55.543Z,3.23
2019-01-09T12:25:25.314Z,3.70
2019-01-09T12:27:55.598Z,3.93
2019-01-09T12:30:27.915Z,4.03
2019-01-09T12:32:57.617Z,3.53
2019-01-09T12:42:05.385Z,3.80
2019-01-09T12:45:37.632Z,3.50
2019-01-09T12:48:07.672Z,3.60
2019-01-09T12:50:37.390Z,2.87
2019-01-09T12:53:06.744Z,3.00
2019-01-09T12:55:36.084Z,2.80
2019-01-09T12:58:05.468Z,3.03
2019-01-09T13:00:34.877Z,2.97
2019-01-09T13:03:04.232Z,2.97
2019-01-09T13:05:33.603Z,3.00
2019-01-09T13:08:02.950Z,3.40
2019-01-09T13:10:32.313Z,3.10
2019-01-09T13:13:01.780Z,3.10
2019-01-09T13:15:31.143Z,3.13
2019-01-09T13:18:00.487Z,3.30
2019-01-09T13:20:29.854Z,3.77
2019-01-09T13:22:59.237Z,4.47
2019-01-09T13:25:28.581Z,2.90
2019-01-09T13:27:57.953Z,3.80
2019-01-09T13:30:28.482Z,3.67
2019-01-09T13:32:57.823Z,4.10
2019-01-09T13:35:27.217Z,3.40
2019-01-09T13:37:56.562Z,5.10
2019-01-09T13:40:26.251Z,3.10
2019-01-09T13:42:55.955Z,3.27
2019-01-09T13:45:25.377Z,3.50
2019-01-09T13:47:55.012Z,3.50
2019-01-09T13:50:24.361Z,3.07
2019-01-09T13:52:53.702Z,3.17
2019-01-09T13:55:23.051Z,3.90
2019-01-09T13:57:52.815Z,3.57
2019-01-09T14:00:23.079Z,3.60
2019-01-09T14:02:52.494Z,3.20
2019-01-09T14:05:21.937Z,3.23
2019-01-09T14:07:54.521Z,3.10
2019-01-09T14:10:25.773Z,3.13
2019-01-09T14:12:55.596Z,3.40
2019-01-09T14:15:24.960Z,3.13
2019-01-09T14:17:54.302Z,2.90
2019-01-09T14:20:23.902Z,3.30
2019-01-09T14:22:53.250Z,3.40
2019-01-09T14:25:22.676Z,3.87
2019-01-09T14:27:52.043Z,3.77
2019-01-09T14:30:25.196Z,3.80
2019-01-09T14:32:55.662Z,3.70
2019-01-09T14:35:25.782Z,3.90
2019-01-09T14:37:55.190Z,4.57
2019-01-09T14:40:24.528Z,3.20
2019-01-09T14:42:53.901Z,3.37
2019-01-09T14:45:23.249Z,3.93
2019-01-09T14:47:52.600Z,4.10
2019-01-09T14:50:24.860Z,4.87
2019-01-09T14:52:54.277Z,4.60
2019-01-09T14:55:23.770Z,3.67
2019-01-09T14:57:53.575Z,3.60
2019-01-09T15:00:27.684Z,3.75
2019-01-09T15:02:57.105Z,3.67
2019-01-09T15:05:26.475Z,4.07
2019-01-09T15:07:55.840Z,4.00
2019-01-09T15:10:28.416Z,3.20
2019-01-09T15:12:58.754Z,3.70
2019-01-09T15:15:28.358Z,4.03
2019-01-09T15:17:57.772Z,3.47
2019-01-09T15:20:27.149Z,3.60
2019-01-09T15:22:56.507Z,3.10
2019-01-09T15:25:25.905Z,3.17
2019-01-09T15:27:55.275Z,3.27
2019-01-09T15:30:27.845Z,3.20
2019-01-09T15:32:57.268Z,3.67
2019-01-09T15:35:27.337Z,3.30
2019-01-09T15:37:56.760Z,4.03
2019-01-09T15:40:30.916Z,4.13
2019-01-09T15:43:00.364Z,4.17
2019-01-09T15:45:29.730Z,4.75
2019-01-09T15:47:59.155Z,3.77
2019-01-09T15:50:29.332Z,4.17
2019-01-09T15:52:58.679Z,3.90
2019-01-09T15:55:28.062Z,3.95
2019-01-09T15:57:57.496Z,3.60
2019-01-09T16:00:31.216Z,3.80
2019-01-09T16:03:01.009Z,3.73
2019-01-09T16:05:30.947Z,3.60
2019-01-09T16:08:00.302Z,3.87
2019-01-09T16:10:29.657Z,3.83
2019-01-09T16:12:59.022Z,3.50
2019-01-09T16:15:28.380Z,3.20
2019-01-09T16:17:57.814Z,3.80
2019-01-09T16:20:27.322Z,3.93
2019-01-09T16:22:56.670Z,3.30
2019-01-09T16:25:26.131Z,3.43
2019-01-09T16:27:55.468Z,4.77
2019-01-09T16:30:38.733Z,3.50
2019-01-09T16:33:08.099Z,3.87
2019-01-09T16:35:39.155Z,4.30
2019-01-09T16:38:09.644Z,3.80
2019-01-09T16:40:39.010Z,3.20
2019-01-09T16:43:08.369Z,3.13
2019-01-09T16:45:37.799Z,4.07
2019-01-09T16:48:07.584Z,3.67
2019-01-09T16:50:36.934Z,4.20
2019-01-09T16:53:06.377Z,3.37
2019-01-09T16:55:35.776Z,3.63
2019-01-09T16:58:06.292Z,3.43
2019-01-09T17:00:42.872Z,3.70
2019-01-09T17:03:12.216Z,3.73
2019-01-09T17:05:41.652Z,3.33
2019-01-09T17:08:11.121Z,3.80
2019-01-09T17:10:40.474Z,3.80
2019-01-09T17:13:09.824Z,3.67
2019-01-09T17:15:39.215Z,4.00
2019-01-09T17:18:08.715Z,3.57
2019-01-09T17:20:38.079Z,3.90
2019-01-09T17:23:07.445Z,3.57
2019-01-09T17:25:36.781Z,4.10
2019-01-09T17:28:07.032Z,4.27
2019-01-09T17:30:36.409Z,4.67
2019-01-09T17:33:07.295Z,4.00
2019-01-09T17:35:36.826Z,3.50
2019-01-09T17:38:06.197Z,3.70
2019-01-09T17:40:40.883Z,3.93
2019-01-09T17:43:08.389Z,3.80
2019-01-09T17:45:37.887Z,4.17
2019-01-09T17:48:11.875Z,3.70
2019-01-09T17:50:41.616Z,3.27
2019-01-09T17:53:10.985Z,3.43
2019-01-09T17:55:40.338Z,4.40
2019-01-09T17:58:09.928Z,3.83
2019-01-09T18:00:41.783Z,3.70
2019-01-09T18:03:11.192Z,4.60
2019-01-09T18:05:40.624Z,4.17
2019-01-09T18:08:11.031Z,4.20
2019-01-09T18:10:49.744Z,3.87
2019-01-09T18:13:11.643Z,4.13
2019-01-09T18:15:41.017Z,4.40
2019-01-09T18:18:10.381Z,4.33
2019-01-09T18:20:39.783Z,3.87
2019-01-09T18:23:09.175Z,4.03
2019-01-09T18:25:38.891Z,4.30
2019-01-09T18:28:08.332Z,3.87
2019-01-09T18:30:52.147Z,3.90
2019-01-09T18:33:26.673Z,5.10
2019-01-09T18:36:21.382Z,3.93
2019-01-09T18:39:16.476Z,4.83
2019-01-09T18:42:21.237Z,4.70
2019-01-09T18:44:58.321Z,3.67
2019-01-09T18:47:44.080Z,4.27
2019-01-09T18:50:30.027Z,4.43
2019-01-09T18:53:06.932Z,4.27
2019-01-09T18:55:36.386Z,4.00
2019-01-09T18:58:06.177Z,4.03
2019-01-09T19:00:36.091Z,4.23
2019-01-09T19:03:05.514Z,3.70
2019-01-09T19:05:34.866Z,3.80
2019-01-09T19:08:04.644Z,4.53
2019-01-09T19:10:34.072Z,4.80
2019-01-09T19:13:03.418Z,4.47
2019-01-09T19:15:32.916Z,4.17
2019-01-09T19:18:02.267Z,4.90
2019-01-09T19:20:31.620Z,4.60
2019-01-09T19:23:01.461Z,4.47
2019-01-09T19:25:31.169Z,4.23
2019-01-09T19:28:00.496Z,4.07
2019-01-09T19:30:30.409Z,4.53
2019-01-09T19:33:00.151Z,3.97
2019-01-09T19:35:29.566Z,5.00
2019-01-09T19:37:59.247Z,4.65
2019-01-09T19:40:28.651Z,4.27
2019-01-09T19:42:58.152Z,4.63
2019-01-09T19:45:27.883Z,5.17
2019-01-09T19:47:57.288Z,4.57
2019-01-09T19:50:26.637Z,4.80
2019-01-09T19:52:56.139Z,4.93
2019-01-09T19:55:25.892Z,4.43
2019-01-09T19:57:55.384Z,5.50
2019-01-09T20:00:26.143Z,5.67
2019-01-09T20:02:55.553Z,5.73
2019-01-09T20:05:25.041Z,6.20
2019-01-09T20:07:54.844Z,5.40
2019-01-09T20:10:26.357Z,5.90
2019-01-09T20:12:55.810Z,5.50
2019-01-09T20:15:25.468Z,4.60
2019-01-09T20:17:55.145Z,5.23
2019-01-09T20:20:24.625Z,4.73
2019-01-09T20:22:54.106Z,5.17
2019-01-09T20:25:23.647Z,5.40
2019-01-09T20:27:53.139Z,5.10
2019-01-09T20:30:27.289Z,5.63
2019-01-09T20:32:56.917Z,5.07
2019-01-09T20:35:26.383Z,4.83
2019-01-09T20:37:55.755Z,5.47
2019-01-09T20:40:26.095Z,5.60
2019-01-09T20:42:55.673Z,5.10
2019-01-09T20:45:25.795Z,4.83
2019-01-09T20:47:56.390Z,6.00
2019-01-09T20:50:27.624Z,5.47
2019-01-09T20:52:57.474Z,5.33
2019-01-09T20:55:26.945Z,5.93
2019-01-09T20:57:56.410Z,6.13
2019-01-09T21:00:28.327Z,6.03
2019-01-09T21:03:00.635Z,5.57
2019-01-09T21:05:39.116Z,5.70
2019-01-09T21:08:08.702Z,5.57
2019-01-09T21:10:38.037Z,5.28
2019-01-09T21:13:07.866Z,5.83
2019-01-09T21:15:37.464Z,6.40
2019-01-09T21:18:07.171Z,6.30
2019-01-09T21:20:36.477Z,5.77
2019-01-09T21:23:06.650Z,5.97
2019-01-09T21:25:36.005Z,5.90
2019-01-09T21:28:06.333Z,5.90
2019-01-09T21:30:35.826Z,5.87
2019-01-09T21:33:05.588Z,5.47
2019-01-09T21:35:34.959Z,5.83
2019-01-09T21:38:04.385Z,5.83
2019-01-09T21:40:33.721Z,5.00
2019-01-09T21:43:03.090Z,5.17
2019-01-09T21:45:32.605Z,5.87
2019-01-09T21:48:01.928Z,5.17
2019-01-09T21:50:31.642Z,5.30
2019-01-09T21:53:00.972Z,5.73
2019-01-09T21:55:30.320Z,6.30
2019-01-09T21:58:00.310Z,6.20
2019-01-09T22:00:29.714Z,5.33
2019-01-09T22:02:59.054Z,4.97
2019-01-09T22:05:28.570Z,5.53
2019-01-09T22:08:00.947Z,5.87
2019-01-09T22:10:33.625Z,5.50
2019-01-09T22:13:03.421Z,5.03
2019-01-09T22:15:32.861Z,5.17
2019-01-09T22:18:02.366Z,5.37
2019-01-09T22:20:31.735Z,5.37
2019-01-09T22:23:01.086Z,4.97
2019-01-09T22:25:30.433Z,5.73
2019-01-09T22:27:59.866Z,5.80
2019-01-09T22:30:29.474Z,5.10
2019-01-09T22:32:58.895Z,4.83
2019-01-09T22:35:28.300Z,5.13
2019-01-09T22:37:57.648Z,5.70
2019-01-09T22:40:27.070Z,5.30
2019-01-09T22:42:56.426Z,5.03
2019-01-09T22:45:25.846Z,6.43
2019-01-09T22:47:55.296Z,5.60
2019-01-09T22:50:25.084Z,4.90
2019-01-09T22:52:54.653Z,5.03
2019-01-09T22:55:24.179Z,5.30
2019-01-09T22:57:53.540Z,5.20
2019-01-09T23:00:40.405Z,4.90
2019-01-09T23:03:12.965Z,5.30
2019-01-09T23:05:42.752Z,5.10
2019-01-09T23:08:12.235Z,5.27
2019-01-09T23:10:41.669Z,5.13
2019-01-09T23:13:11.187Z,5.40
2019-01-09T23:15:40.605Z,5.60
2019-01-09T23:18:10.055Z,5.73
2019-01-09T23:20:39.421Z,5.10
2019-01-09T23:23:09.304Z,5.83
2019-01-09T23:25:38.661Z,5.27
2019-01-09T23:28:08.136Z,5.37
2019-01-09T23:30:37.628Z,5.17
2019-01-09T23:33:07.115Z,5.27
2019-01-09T23:35:36.560Z,5.53
2019-01-09T23:38:06.217Z,5.10
2019-01-09T23:40:35.662Z,5.10
2019-01-09T23:43:05.150Z,5.33
2019-01-09T23:45:34.634Z,5.35
2019-01-09T23:48:04.013Z,4.93
2019-01-09T23:50:33.381Z,5.37
2019-01-09T23:53:02.727Z,5.33
2019-01-09T23:55:32.453Z,5.60
2019-01-09T23:58:04.621Z,5.60
